Time;durP1;ratioP1;P1;durP2;ratioP2;P2;SDS_P1;SDS_P2;PMS_P1;PMS_P2;Temp;Humidity;BMP_temperature;BMP_pressure;BME280_temperature;BME280_humidity;BME280_pressure;Samples;Min_cycle;Max_cycle;Signal;HPM_P1;HPM_P2
2024/01/30 00:00:42;;;;;;;52.40;33.33;;;6.00;95.60;;;;;;6246692;23;20079;-78
2024/01/30 00:03:08;;;;;;;56.33;36.80;;;5.80;95.70;;;;;;6246656;23;20007;-78
2024/01/30 00:05:34;;;;;;;62.17;37.88;;;5.80;95.80;;;;;;6246073;23;20000;-78
2024/01/30 00:07:59;;;;;;;60.70;39.08;;;5.70;95.80;;;;;;6246194;23;20002;-78
2024/01/30 00:10:25;;;;;;;57.70;37.97;;;5.70;95.80;;;;;;6243405;23;20008;-78
2024/01/30 00:12:51;;;;;;;58.08;37.65;;;5.70;95.80;;;;;;6244971;23;20168;-78
2024/01/30 00:15:18;;;;;;;55.78;36.45;;;5.70;95.80;;;;;;6245171;23;19996;-78
2024/01/30 00:17:43;;;;;;;75.60;46.13;;;5.70;95.60;;;;;;6246280;23;20004;-77
2024/01/30 00:20:10;;;;;;;55.22;35.20;;;5.50;95.50;;;;;;6245895;23;20007;-78
2024/01/30 00:22:35;;;;;;;57.72;38.03;;;5.40;95.80;;;;;;6246719;23;20367;-77
2024/01/30 00:25:01;;;;;;;52.15;34.17;;;5.40;95.80;;;;;;6246343;23;20024;-78
2024/01/30 00:27:27;;;;;;;48.55;32.75;;;5.30;95.70;;;;;;6246541;23;20075;-78
2024/01/30 00:29:53;;;;;;;45.00;30.67;;;5.30;95.70;;;;;;6246574;23;20436;-78
2024/01/30 00:32:19;;;;;;;48.05;31.48;;;5.30;95.50;;;;;;6246359;23;20001;-78
2024/01/30 00:34:45;;;;;;;47.30;30.70;;;5.20;95.50;;;;;;6246047;23;20004;-78
2024/01/30 00:37:10;;;;;;;55.58;36.88;;;5.10;95.60;;;;;;6219750;23;20007;-78
2024/01/30 00:39:36;;;;;;;46.92;30.15;;;5.10;95.50;;;;;;6246207;23;20008;-78
2024/01/30 00:42:02;;;;;;;42.50;28.80;;;5.00;95.60;;;;;;6246179;23;20003;-78
2024/01/30 00:44:27;;;;;;;56.08;37.55;;;5.00;95.60;;;;;;6245887;23;20003;-78
2024/01/30 00:46:54;;;;;;;46.90;29.60;;;4.80;95.70;;;;;;6246920;23;20008;-78
2024/01/30 00:49:19;;;;;;;55.17;36.15;;;4.80;95.70;;;;;;6246364;23;20079;-78
2024/01/30 00:51:45;;;;;;;45.25;29.88;;;4.60;95.80;;;;;;6245899;23;20118;-78
2024/01/30 00:54:11;;;;;;;48.03;31.65;;;4.60;95.90;;;;;;6245932;23;20359;-78
2024/01/30 00:56:37;;;;;;;47.58;31.77;;;4.70;95.90;;;;;;6246047;23;20043;-78
2024/01/30 00:59:02;;;;;;;45.40;29.83;;;4.70;95.80;;;;;;6246181;23;20000;-78
2024/01/30 01:01:28;;;;;;;52.40;34.15;;;4.70;95.80;;;;;;6245953;23;20079;-78
2024/01/30 01:03:54;;;;;;;41.58;28.63;;;4.70;95.70;;;;;;6245897;23;20008;-78
2024/01/30 01:06:19;;;;;;;38.75;27.67;;;4.70;95.70;;;;;;6245515;23;20007;-78
2024/01/30 01:08:45;;;;;;;41.33;28.58;;;4.70;95.60;;;;;;6246265;23;20027;-78
2024/01/30 01:11:11;;;;;;;40.08;28.67;;;4.80;95.60;;;;;;6218761;23;20085;-78
2024/01/30 01:13:36;;;;;;;39.88;27.92;;;4.80;95.50;;;;;;6245698;23;20087;-78
2024/01/30 01:16:03;;;;;;;40.55;28.75;;;4.70;95.50;;;;;;6245655;23;20075;-78
2024/01/30 01:18:29;;;;;;;39.85;26.80;;;4.80;95.40;;;;;;6245323;23;20061;-78
2024/01/30 01:20:55;;;;;;;30.17;22.67;;;4.70;95.20;;;;;;6245933;23;20004;-78
2024/01/30 01:23:20;;;;;;;40.30;28.10;;;4.60;95.10;;;;;;6245968;23;20071;-78
2024/01/30 01:25:46;;;;;;;41.08;29.63;;;4.60;95.30;;;;;;6245863;23;20410;-78
2024/01/30 01:28:12;;;;;;;39.20;28.27;;;4.50;95.30;;;;;;6245958;23;20089;-78
2024/01/30 01:30:39;;;;;;;38.10;27.08;;;4.50;95.30;;;;;;6245719;23;20012;-78
2024/01/30 01:33:06;;;;;;;44.85;29.90;;;4.50;95.40;;;;;;6245041;23;20004;-78
2024/01/30 01:35:32;;;;;;;37.65;26.65;;;4.50;95.30;;;;;;6245399;23;20114;-77
2024/01/30 01:38:00;;;;;;;34.92;25.27;;;4.40;95.40;;;;;;6218841;23;20308;-78
2024/01/30 01:40:27;;;;;;;35.65;25.38;;;4.40;95.40;;;;;;6245787;23;20004;-77
2024/01/30 01:42:54;;;;;;;34.85;24.33;;;4.50;95.40;;;;;;6245268;23;20000;-77
2024/01/30 01:45:21;;;;;;;42.15;29.45;;;4.50;95.40;;;;;;6245390;23;19996;-77
2024/01/30 01:47:50;;;;;;;35.42;25.80;;;4.50;95.40;;;;;;6245448;23;20004;-77
2024/01/30 01:50:19;;;;;;;34.72;26.33;;;4.50;95.40;;;;;;6245780;23;20032;-77
2024/01/30 01:52:48;;;;;;;36.00;25.30;;;4.50;95.40;;;;;;6245357;23;20024;-77
2024/01/30 01:55:16;;;;;;;35.67;25.23;;;4.50;95.40;;;;;;6245880;23;20027;-77
2024/01/30 01:57:42;;;;;;;36.30;25.90;;;4.50;95.50;;;;;;6245740;23;20004;-77
2024/01/30 02:00:10;;;;;;;32.40;23.60;;;4.50;95.40;;;;;;6245913;23;20441;-77
2024/01/30 02:02:36;;;;;;;34.30;25.75;;;4.50;95.40;;;;;;6245501;23;20003;-77
2024/01/30 02:05:02;;;;;;;35.53;26.42;;;4.40;95.40;;;;;;6245265;23;20008;-77
2024/01/30 02:07:28;;;;;;;33.17;24.25;;;4.40;95.50;;;;;;6245136;23;20003;-77
2024/01/30 02:09:55;;;;;;;32.28;24.15;;;4.50;95.50;;;;;;6245551;23;20000;-77
2024/01/30 02:12:20;;;;;;;33.50;24.13;;;4.50;95.40;;;;;;6245285;23;20004;-77
2024/01/30 02:14:50;;;;;;;35.10;25.23;;;4.50;95.40;;;;;;6245477;23;20098;-78
2024/01/30 02:17:16;;;;;;;41.03;30.50;;;4.50;95.30;;;;;;6218496;23;20295;-78
2024/01/30 02:19:42;;;;;;;34.25;25.48;;;4.40;95.20;;;;;;6245871;23;20050;-78
2024/01/30 02:22:08;;;;;;;37.03;25.67;;;4.40;95.20;;;;;;6218803;23;20492;-78
2024/01/30 02:24:34;;;;;;;34.58;24.15;;;4.30;95.20;;;;;;6245054;23;19996;-78
2024/01/30 02:27:00;;;;;;;33.35;24.23;;;4.30;95.20;;;;;;6245114;23;19997;-77
2024/01/30 02:29:25;;;;;;;30.75;22.13;;;4.20;95.10;;;;;;6244932;23;20071;-77
2024/01/30 02:31:52;;;;;;;32.45;23.88;;;4.20;95.10;;;;;;6245188;23;20004;-78
2024/01/30 02:34:19;;;;;;;34.92;24.73;;;4.20;95.10;;;;;;6245671;23;20032;-78
2024/01/30 02:36:45;;;;;;;30.77;23.60;;;4.20;95.10;;;;;;6218282;23;20012;-77
2024/01/30 02:39:11;;;;;;;31.77;23.83;;;4.20;95.10;;;;;;6218308;23;20011;-77
2024/01/30 02:41:37;;;;;;;33.78;24.20;;;4.10;95.10;;;;;;6245899;23;20004;-77
2024/01/30 02:44:03;;;;;;;29.80;23.02;;;4.00;95.00;;;;;;6244838;23;20071;-78
2024/01/30 02:46:29;;;;;;;30.95;23.33;;;4.00;95.10;;;;;;6245031;23;20050;-77
2024/01/30 02:48:56;;;;;;;31.48;22.92;;;4.10;95.10;;;;;;6245463;23;20004;-77
2024/01/30 02:51:21;;;;;;;31.05;23.95;;;4.00;95.10;;;;;;6245513;23;20000;-78
2024/01/30 02:53:47;;;;;;;27.38;21.35;;;4.10;95.10;;;;;;6245854;23;20080;-77
2024/01/30 02:56:13;;;;;;;28.90;22.15;;;4.10;95.00;;;;;;6245616;23;20004;-78
2024/01/30 02:58:40;;;;;;;28.30;22.75;;;4.10;95.00;;;;;;6245372;23;20426;-78
2024/01/30 03:01:06;;;;;;;31.67;24.20;;;4.20;95.00;;;;;;6245476;23;20067;-77
2024/01/30 03:03:34;;;;;;;32.50;22.58;;;4.20;94.80;;;;;;6245282;23;20750;-78
2024/01/30 03:05:59;;;;;;;27.15;21.10;;;4.20;94.80;;;;;;6245399;23;20004;-78
2024/01/30 03:08:25;;;;;;;28.63;22.20;;;4.10;94.80;;;;;;6245496;23;20530;-77
2024/01/30 03:10:51;;;;;;;31.15;23.15;;;4.10;94.80;;;;;;6218010;23;20009;-77
2024/01/30 03:13:16;;;;;;;30.95;23.23;;;4.10;94.80;;;;;;6217799;23;20008;-78
2024/01/30 03:15:42;;;;;;;27.15;21.05;;;4.10;94.80;;;;;;6245066;23;20008;-77
2024/01/30 03:18:08;;;;;;;27.42;20.58;;;4.10;94.90;;;;;;6244896;23;20004;-77
2024/01/30 03:20:34;;;;;;;28.73;21.00;;;4.10;94.90;;;;;;6244962;23;20080;-77
2024/01/30 03:23:00;;;;;;;26.83;20.77;;;4.10;94.80;;;;;;6245385;23;20027;-77
2024/01/30 03:25:26;;;;;;;26.67;20.02;;;4.10;95.10;;;;;;6245232;23;19997;-77
2024/01/30 03:27:51;;;;;;;28.00;21.45;;;4.10;94.80;;;;;;6245298;23;20130;-77
2024/01/30 03:30:17;;;;;;;29.15;21.58;;;4.10;94.80;;;;;;6218251;23;20425;-77
2024/01/30 03:32:44;;;;;;;27.90;21.08;;;4.10;94.80;;;;;;6245181;23;20007;-77
2024/01/30 03:35:09;;;;;;;27.25;20.17;;;4.10;94.80;;;;;;6245363;23;20071;-77
2024/01/30 03:37:35;;;;;;;26.73;20.67;;;4.20;94.80;;;;;;6244874;23;20032;-77
2024/01/30 03:40:02;;;;;;;27.25;21.35;;;4.10;94.60;;;;;;6218678;23;20004;-77
2024/01/30 03:42:28;;;;;;;24.83;18.70;;;4.10;94.60;;;;;;6245815;23;20000;-77
2024/01/30 03:44:54;;;;;;;25.63;19.48;;;4.00;94.70;;;;;;6246731;23;20077;-77
2024/01/30 03:47:20;;;;;;;29.25;21.60;;;3.90;94.80;;;;;;6247031;23;20009;-78
2024/01/30 03:49:46;;;;;;;26.10;20.65;;;3.90;94.90;;;;;;6246953;23;20011;-78
2024/01/30 03:52:12;;;;;;;23.17;18.38;;;4.00;94.90;;;;;;6245895;23;20019;-78
2024/01/30 03:54:38;;;;;;;25.00;18.55;;;3.90;94.80;;;;;;6246846;23;20027;-78
2024/01/30 03:57:04;;;;;;;27.73;20.17;;;3.80;94.90;;;;;;6246646;23;20000;-79
2024/01/30 03:59:29;;;;;;;27.00;19.98;;;3.80;95.00;;;;;;6246270;23;20393;-78
2024/01/30 04:01:55;;;;;;;24.73;19.20;;;3.80;95.00;;;;;;6245909;23;20323;-77
2024/01/30 04:04:21;;;;;;;26.42;19.63;;;3.90;95.00;;;;;;6246221;23;20338;-77
2024/01/30 04:06:47;;;;;;;27.27;20.65;;;3.90;94.90;;;;;;6246347;23;20315;-77
2024/01/30 04:09:13;;;;;;;25.42;19.23;;;3.90;94.80;;;;;;6246241;23;20079;-77
2024/01/30 04:11:39;;;;;;;26.50;19.30;;;3.90;94.80;;;;;;6245858;23;20031;-77
2024/01/30 04:14:05;;;;;;;24.48;19.50;;;3.90;94.90;;;;;;6245708;23;20000;-77
2024/01/30 04:16:31;;;;;;;24.50;19.50;;;3.90;94.90;;;;;;6246186;23;20004;-77
2024/01/30 04:18:58;;;;;;;26.92;20.77;;;3.90;94.90;;;;;;6219479;23;20012;-77
2024/01/30 04:21:24;;;;;;;25.60;19.30;;;3.90;95.00;;;;;;6219140;23;20004;-77
2024/01/30 04:23:51;;;;;;;25.70;19.85;;;4.00;94.90;;;;;;6245276;23;20000;-77
2024/01/30 04:26:16;;;;;;;25.05;20.40;;;4.00;94.80;;;;;;6245971;23;20095;-77
2024/01/30 04:28:44;;;;;;;21.40;16.52;;;4.00;94.70;;;;;;6245878;23;20395;-77
2024/01/30 04:31:09;;;;;;;20.23;14.98;;;3.80;94.70;;;;;;6246333;23;20007;-77
2024/01/30 04:33:36;;;;;;;21.55;17.48;;;3.70;94.50;;;;;;6245682;23;20303;-77
2024/01/30 04:36:02;;;;;;;19.83;15.68;;;3.70;94.70;;;;;;6246056;23;20077;-79
2024/01/30 04:38:28;;;;;;;23.00;17.08;;;3.60;94.70;;;;;;6245836;23;20087;-77
2024/01/30 04:40:54;;;;;;;22.60;17.75;;;3.60;94.80;;;;;;6246460;23;20024;-77
2024/01/30 04:43:20;;;;;;;25.33;18.60;;;3.70;94.80;;;;;;6246047;23;20003;-77
2024/01/30 04:45:46;;;;;;;24.40;18.90;;;3.70;94.70;;;;;;6245877;23;20000;-77
2024/01/30 04:48:11;;;;;;;24.08;16.50;;;3.60;94.60;;;;;;6245796;23;20075;-77
2024/01/30 04:50:37;;;;;;;19.67;15.63;;;3.60;94.60;;;;;;6245709;23;20083;-77
2024/01/30 04:53:03;;;;;;;21.85;16.60;;;3.50;94.60;;;;;;6245604;23;20000;-77
2024/01/30 04:55:28;;;;;;;22.13;17.00;;;3.50;94.70;;;;;;6245458;23;20004;-77
2024/01/30 04:57:54;;;;;;;21.55;16.13;;;3.60;94.60;;;;;;6245265;23;20084;-77
2024/01/30 05:00:20;;;;;;;21.15;14.73;;;3.50;94.50;;;;;;6245371;23;19996;-77
2024/01/30 05:02:45;;;;;;;19.13;15.65;;;3.50;94.50;;;;;;6245936;23;20034;-77
2024/01/30 05:05:11;;;;;;;21.05;15.63;;;3.50;94.60;;;;;;6244901;23;20273;-77
2024/01/30 05:07:37;;;;;;;20.63;15.55;;;3.50;94.50;;;;;;6245412;23;20488;-77
2024/01/30 05:10:03;;;;;;;21.35;16.67;;;3.50;94.40;;;;;;6245997;23;19997;-77
2024/01/30 05:12:29;;;;;;;21.30;15.20;;;3.40;94.40;;;;;;6245712;23;20071;-77
2024/01/30 05:14:54;;;;;;;18.65;14.70;;;3.40;94.40;;;;;;6245063;23;20303;-77
2024/01/30 05:17:20;;;;;;;20.05;15.25;;;3.40;94.40;;;;;;6245807;23;19996;-77
2024/01/30 05:19:46;;;;;;;18.02;14.45;;;3.40;94.50;;;;;;6218954;23;20019;-77
2024/01/30 05:22:15;;;;;;;25.08;18.83;;;3.50;94.50;;;;;;6245237;23;20001;-77
2024/01/30 05:24:42;;;;;;;26.55;18.77;;;3.30;94.10;;;;;;6245108;23;20000;-77
2024/01/30 05:27:08;;;;;;;24.75;18.08;;;3.30;94.30;;;;;;6245291;23;20403;-77
2024/01/30 05:29:34;;;;;;;21.27;13.27;;;3.20;94.40;;;;;;6245369;23;20024;-78
2024/01/30 05:31:59;;;;;;;18.30;14.13;;;3.20;94.40;;;;;;6245208;23;20004;-78
2024/01/30 05:34:25;;;;;;;19.80;15.32;;;3.20;94.50;;;;;;6219154;23;20004;-77
2024/01/30 05:36:51;;;;;;;19.85;14.13;;;3.20;94.60;;;;;;6246057;23;20035;-77
2024/01/30 05:39:16;;;;;;;19.15;13.85;;;3.30;94.50;;;;;;6245594;23;20030;-77
2024/01/30 05:41:42;;;;;;;21.17;16.40;;;3.30;94.30;;;;;;6245480;23;20329;-77
2024/01/30 05:44:08;;;;;;;18.58;14.93;;;3.30;94.20;;;;;;6218967;23;20008;-78
2024/01/30 05:46:35;;;;;;;18.38;14.93;;;3.30;94.20;;;;;;6245742;23;20046;-77
2024/01/30 05:49:00;;;;;;;18.58;14.10;;;3.30;94.30;;;;;;6245762;23;20000;-76
2024/01/30 05:51:27;;;;;;;16.20;13.40;;;3.30;94.20;;;;;;6246218;23;20333;-77
2024/01/30 05:53:53;;;;;;;15.85;12.07;;;3.20;94.20;;;;;;6218974;23;20326;-77
2024/01/30 05:56:19;;;;;;;20.05;14.43;;;3.10;94.30;;;;;;6245659;23;20028;-78
2024/01/30 05:58:44;;;;;;;27.08;19.35;;;3.10;94.40;;;;;;6245162;23;20014;-77
2024/01/30 06:01:10;;;;;;;28.58;14.38;;;3.00;94.50;;;;;;6245535;23;20075;-77
2024/01/30 06:03:36;;;;;;;20.88;15.52;;;3.00;94.70;;;;;;6245350;23;20004;-77
2024/01/30 06:06:02;;;;;;;19.60;15.85;;;3.00;94.40;;;;;;6245337;23;20340;-77
2024/01/30 06:08:27;;;;;;;14.95;11.88;;;2.70;94.70;;;;;;6245588;23;20040;-78
2024/01/30 06:10:53;;;;;;;30.33;20.23;;;2.70;95.00;;;;;;6244642;23;20011;-77
2024/01/30 06:13:19;;;;;;;21.50;13.15;;;2.70;94.90;;;;;;6245062;23;20005;-77
2024/01/30 06:15:45;;;;;;;15.75;12.07;;;2.60;95.30;;;;;;6218476;23;20410;-75
2024/01/30 06:18:10;;;;;;;17.60;13.80;;;2.70;95.20;;;;;;6246138;23;20007;-75
2024/01/30 06:20:36;;;;;;;15.23;11.55;;;2.80;95.30;;;;;;6245582;23;20001;-75
2024/01/30 06:23:02;;;;;;;17.85;12.82;;;2.80;95.00;;;;;;6245642;23;20292;-75
2024/01/30 06:25:27;;;;;;;15.15;12.93;;;2.90;95.00;;;;;;6245509;23;20059;-76
2024/01/30 06:27:53;;;;;;;16.52;12.95;;;3.00;95.10;;;;;;6246144;23;20402;-75
2024/01/30 06:30:19;;;;;;;16.40;13.32;;;3.20;94.90;;;;;;6245790;23;20403;-75
2024/01/30 06:32:44;;;;;;;18.63;12.93;;;3.20;94.60;;;;;;6245602;23;19996;-75
2024/01/30 06:35:10;;;;;;;20.15;14.80;;;3.20;94.50;;;;;;6245403;23;20044;-75
2024/01/30 06:37:36;;;;;;;17.77;14.05;;;3.20;94.40;;;;;;6218208;23;20012;-75
2024/01/30 06:40:04;;;;;;;24.10;18.65;;;3.20;94.50;;;;;;6245266;23;20050;-75
2024/01/30 06:42:30;;;;;;;17.85;13.73;;;3.00;94.40;;;;;;6245370;23;20007;-76
2024/01/30 06:44:56;;;;;;;15.40;12.32;;;3.00;94.60;;;;;;6245313;23;20283;-75
2024/01/30 06:47:21;;;;;;;19.50;14.25;;;3.00;94.60;;;;;;6245548;23;19996;-76
2024/01/30 06:49:47;;;;;;;18.27;13.80;;;3.00;94.70;;;;;;6244821;23;20079;-75
2024/01/30 06:52:14;;;;;;;17.15;13.23;;;2.90;94.80;;;;;;6237250;23;20035;-80
2024/01/30 06:54:40;;;;;;;16.02;12.75;;;3.00;94.80;;;;;;6215889;23;20008;-81
2024/01/30 06:57:11;;;;;;;16.23;12.85;;;3.00;94.70;;;;;;6244745;23;20011;-80
2024/01/30 06:59:37;;;;;;;19.05;13.95;;;3.10;94.90;;;;;;6218335;23;20484;-81
2024/01/30 07:02:03;;;;;;;17.52;14.48;;;3.20;94.70;;;;;;6244568;23;20000;-81
2024/01/30 07:04:28;;;;;;;18.83;14.95;;;3.20;94.60;;;;;;6244590;23;20079;-80
2024/01/30 07:06:54;;;;;;;19.80;15.02;;;3.30;94.60;;;;;;6245016;23;19996;-83
2024/01/30 07:09:20;;;;;;;17.58;13.65;;;3.30;94.20;;;;;;6218167;23;20426;-86
2024/01/30 07:11:45;;;;;;;18.35;15.52;;;3.30;94.40;;;;;;6245225;23;20075;-87
2024/01/30 07:14:11;;;;;;;18.55;14.60;;;3.30;94.30;;;;;;6245876;23;20000;-86
2024/01/30 07:16:37;;;;;;;18.00;14.60;;;3.30;94.30;;;;;;6245855;23;20372;-84
2024/01/30 07:19:02;;;;;;;19.17;14.10;;;3.30;94.20;;;;;;6246652;23;20102;-85
2024/01/30 07:21:28;;;;;;;19.23;14.77;;;3.30;94.20;;;;;;6246454;23;19996;-82
2024/01/30 07:23:55;;;;;;;20.75;16.45;;;3.30;94.20;;;;;;6246289;23;20035;-85
2024/01/30 07:26:21;;;;;;;18.55;14.60;;;3.30;94.10;;;;;;6246763;23;19996;-87
2024/01/30 07:28:46;;;;;;;26.65;20.67;;;3.30;94.20;;;;;;6247411;23;20004;-86
2024/01/30 07:31:23;;;;;;;29.50;21.95;;;3.10;94.20;;;;;;6220877;23;20413;-82
2024/01/30 07:33:49;;;;;;;20.92;14.75;;;3.00;94.40;;;;;;6219930;23;20004;-81
2024/01/30 07:36:14;;;;;;;23.20;18.70;;;3.00;94.70;;;;;;6246638;23;20007;-80
2024/01/30 07:38:40;;;;;;;17.67;13.90;;;2.80;94.80;;;;;;6246898;23;20004;-81
2024/01/30 07:41:06;;;;;;;21.55;15.77;;;2.90;94.80;;;;;;6220580;23;20004;-81
2024/01/30 07:43:35;;;;;;;17.73;13.50;;;3.00;94.80;;;;;;6219722;23;20035;-81
2024/01/30 07:46:02;;;;;;;26.58;20.30;;;3.10;94.70;;;;;;6246772;23;20003;-80
2024/01/30 07:48:28;;;;;;;17.77;13.63;;;3.10;94.50;;;;;;6246856;23;20004;-79
2024/01/30 07:50:54;;;;;;;16.23;13.55;;;3.10;94.70;;;;;;6219966;23;20039;-80
2024/01/30 07:53:19;;;;;;;22.42;16.52;;;3.20;94.70;;;;;;6245726;23;20004;-81
2024/01/30 07:55:48;;;;;;;15.85;12.77;;;3.10;94.60;;;;;;6244244;23;20324;-87
2024/01/30 07:58:14;;;;;;;26.77;21.25;;;3.10;94.90;;;;;;6247034;23;20012;-84
2024/01/30 08:00:40;;;;;;;17.85;14.15;;;3.00;94.70;;;;;;6247204;23;20414;-84
2024/01/30 08:03:05;;;;;;;18.25;14.40;;;3.10;94.90;;;;;;6219426;23;20005;-81
2024/01/30 08:05:31;;;;;;;23.63;18.25;;;3.20;94.90;;;;;;6246556;23;20031;-80
2024/01/30 08:07:57;;;;;;;17.08;13.93;;;3.20;94.90;;;;;;6246917;23;20015;-80
2024/01/30 08:10:22;;;;;;;16.38;13.52;;;3.20;94.90;;;;;;6247304;23;20288;-80
2024/01/30 08:12:48;;;;;;;20.90;17.58;;;3.30;94.80;;;;;;6246661;23;20019;-80
2024/01/30 08:15:19;;;;;;;17.55;14.35;;;3.40;94.70;;;;;;6247338;23;20135;-80
2024/01/30 08:17:45;;;;;;;17.23;13.82;;;3.50;94.70;;;;;;6219790;23;20000;-80
2024/01/30 08:20:11;;;;;;;18.23;14.65;;;3.60;94.60;;;;;;6246972;23;20000;-80
2024/01/30 08:22:39;;;;;;;26.20;20.40;;;3.70;94.50;;;;;;6246866;23;20007;-80
2024/01/30 08:25:06;;;;;;;17.75;13.95;;;3.70;94.40;;;;;;6247200;23;20079;-80
2024/01/30 08:27:32;;;;;;;18.58;13.68;;;3.80;94.40;;;;;;6246486;23;20529;-80
2024/01/30 08:29:57;;;;;;;20.40;16.10;;;3.90;94.40;;;;;;6247129;23;20079;-80
2024/01/30 08:32:23;;;;;;;18.80;15.52;;;4.00;94.40;;;;;;6246509;23;20005;-80
2024/01/30 08:34:50;;;;;;;19.83;16.25;;;4.10;94.30;;;;;;6245022;23;20000;-81
2024/01/30 08:37:16;;;;;;;20.30;15.48;;;4.30;94.20;;;;;;6218027;23;20015;-80
2024/01/30 08:39:43;;;;;;;18.08;15.13;;;4.40;94.10;;;;;;6246645;23;20405;-81
2024/01/30 08:42:08;;;;;;;18.33;14.57;;;4.50;93.90;;;;;;6246949;23;20072;-81
2024/01/30 08:44:34;;;;;;;18.55;15.20;;;4.60;93.90;;;;;;6246772;23;19996;-80
2024/01/30 08:47:10;;;;;;;19.52;15.98;;;4.70;93.80;;;;;;6220033;23;20008;-80
2024/01/30 08:49:45;;;;;;;20.42;16.73;;;4.90;93.70;;;;;;6246388;23;20015;-81
2024/01/30 08:52:11;;;;;;;23.63;18.90;;;5.10;93.60;;;;;;6218112;23;20493;-81
2024/01/30 08:54:58;;;;;;;19.05;15.45;;;5.00;93.20;;;;;;6245472;23;20008;-80
2024/01/30 08:57:24;;;;;;;17.83;14.50;;;5.10;93.50;;;;;;6218452;23;20008;-81
2024/01/30 08:59:50;;;;;;;18.80;16.33;;;5.30;93.50;;;;;;6218980;23;20100;-81
2024/01/30 09:02:17;;;;;;;21.63;17.10;;;5.60;93.40;;;;;;6245968;23;20003;-87
2024/01/30 09:04:43;;;;;;;20.13;16.55;;;5.80;93.20;;;;;;6246800;23;20378;-84
2024/01/30 09:07:10;;;;;;;20.50;16.13;;;6.00;92.90;;;;;;6246493;23;20000;-88
2024/01/30 09:09:37;;;;;;;19.73;16.80;;;6.20;92.70;;;;;;6247044;23;20079;-84
2024/01/30 09:12:06;;;;;;;19.88;16.17;;;6.40;92.50;;;;;;6246151;23;20008;-81
2024/01/30 09:14:38;;;;;;;20.00;16.40;;;6.60;92.40;;;;;;6246344;23;20027;-84
2024/01/30 09:17:04;;;;;;;21.83;17.25;;;6.70;91.60;;;;;;6236292;23;20034;-85
2024/01/30 09:19:30;;;;;;;18.70;15.73;;;6.70;92.00;;;;;;6249993;23;20051;-86
2024/01/30 09:21:56;;;;;;;19.75;15.98;;;6.80;91.60;;;;;;6245291;23;20119;-85
2024/01/30 09:24:26;;;;;;;18.25;15.65;;;7.00;91.90;;;;;;6245665;23;20061;-83
2024/01/30 09:26:52;;;;;;;19.92;17.52;;;7.00;91.50;;;;;;6246106;23;20601;-86
2024/01/30 09:29:23;;;;;;;28.58;23.30;;;7.20;91.80;;;;;;6245022;23;20004;-88
2024/01/30 09:31:49;;;;;;;21.30;17.27;;;7.30;90.60;;;;;;6218962;23;20438;-87
2024/01/30 09:34:15;;;;;;;18.58;15.90;;;7.50;90.60;;;;;;6245087;23;20010;-81
2024/01/30 09:36:41;;;;;;;21.13;16.30;;;7.60;91.10;;;;;;6245626;23;20433;-80
2024/01/30 09:39:10;;;;;;;23.55;17.88;;;7.80;91.00;;;;;;6243607;23;20319;-81
2024/01/30 09:42:03;;;;;;;20.13;17.17;;;8.00;90.80;;;;;;6244136;23;20003;-79
2024/01/30 09:44:30;;;;;;;21.13;17.40;;;8.30;90.80;;;;;;6217002;23;20426;-83
2024/01/30 09:47:03;;;;;;;23.00;18.05;;;8.60;90.50;;;;;;6245070;23;20003;-83
2024/01/30 09:49:31;;;;;;;36.90;25.73;;;8.80;90.20;;;;;;6218129;23;20004;-82
2024/01/30 09:51:57;;;;;;;20.85;17.42;;;8.90;87.00;;;;;;6245345;23;20000;-81
2024/01/30 09:54:28;;;;;;;27.77;21.35;;;9.00;88.80;;;;;;6242828;23;20027;-82
2024/01/30 09:56:54;;;;;;;20.73;17.77;;;9.10;86.50;;;;;;6218629;23;20031;-84
2024/01/30 09:59:20;;;;;;;26.40;19.77;;;9.10;88.00;;;;;;6245337;23;20011;-82
2024/01/30 10:01:46;;;;;;;21.77;18.67;;;9.20;87.50;;;;;;6218452;23;20004;-84
2024/01/30 10:04:26;;;;;;;21.67;17.60;;;9.40;88.10;;;;;;6211926;23;20023;-79
2024/01/30 10:06:52;;;;;;;20.63;16.83;;;9.60;87.90;;;;;;6213579;23;20000;-81
2024/01/30 10:09:17;;;;;;;19.80;17.10;;;9.80;87.40;;;;;;6215252;23;20004;-81
2024/01/30 10:11:43;;;;;;;18.65;16.63;;;10.00;87.40;;;;;;6214588;23;20004;-83
2024/01/30 10:14:12;;;;;;;18.80;16.80;;;10.20;86.80;;;;;;6212927;23;20015;-84
2024/01/30 10:16:41;;;;;;;19.88;15.60;;;10.30;85.60;;;;;;6215030;23;20004;-80
2024/01/30 10:19:07;;;;;;;32.60;22.55;;;10.50;87.60;;;;;;6214484;23;20462;-80
2024/01/30 10:21:33;;;;;;;25.27;18.98;;;10.60;82.50;;;;;;6215526;23;20005;-80
2024/01/30 10:23:59;;;;;;;19.75;16.23;;;10.50;82.60;;;;;;6215700;23;20295;-80
2024/01/30 10:26:25;;;;;;;29.73;23.90;;;10.50;85.30;;;;;;6215550;23;20007;-77
2024/01/30 10:28:54;;;;;;;20.40;16.40;;;10.70;81.90;;;;;;6215603;23;20005;-77
2024/01/30 10:31:20;;;;;;;22.10;17.20;;;10.70;83.10;;;;;;6213425;23;20004;-80
2024/01/30 10:33:45;;;;;;;18.08;15.35;;;10.70;82.20;;;;;;6214823;23;20001;-80
2024/01/30 10:36:13;;;;;;;23.73;18.75;;;10.80;83.40;;;;;;6213183;23;20012;-80
2024/01/30 10:38:42;;;;;;;18.23;15.80;;;10.80;82.80;;;;;;6213138;23;20004;-80
2024/01/30 10:41:13;;;;;;;24.27;21.17;;;10.90;84.00;;;;;;6213475;23;20074;-80
2024/01/30 10:43:41;;;;;;;21.88;17.65;;;11.00;81.70;;;;;;6212912;23;20079;-81
2024/01/30 10:46:21;;;;;;;28.45;22.17;;;11.00;82.70;;;;;;6214189;23;20011;-80
2024/01/30 10:48:58;;;;;;;31.60;24.27;;;11.00;80.40;;;;;;6215024;23;20000;-80
2024/01/30 10:51:27;;;;;;;20.70;17.50;;;11.00;80.80;;;;;;6216604;23;20001;-80
2024/01/30 10:53:53;;;;;;;18.40;16.23;;;11.20;83.20;;;;;;6216254;23;20015;-80
2024/01/30 10:56:21;;;;;;;23.35;18.38;;;11.20;82.00;;;;;;6217210;23;20008;-80
2024/01/30 10:58:55;;;;;;;21.55;16.27;;;11.50;81.90;;;;;;6217179;23;20028;-80
2024/01/30 11:01:23;;;;;;;24.70;20.88;;;11.80;81.20;;;;;;6215261;23;20001;-80
2024/01/30 11:03:52;;;;;;;17.45;15.10;;;11.80;78.80;;;;;;6226021;23;20004;-80
2024/01/30 11:06:18;;;;;;;17.43;15.23;;;12.00;80.20;;;;;;6221010;23;20295;-80
2024/01/30 11:08:59;;;;;;;18.13;15.98;;;12.20;80.60;;;;;;6220700;23;20008;-81
2024/01/30 11:11:25;;;;;;;21.95;17.90;;;12.40;80.20;;;;;;6247490;23;20004;-80
2024/01/30 11:13:51;;;;;;;20.08;17.00;;;12.60;78.90;;;;;;6220203;23;20104;-80
2024/01/30 11:16:17;;;;;;;28.52;21.27;;;12.70;80.00;;;;;;6246968;23;20001;-80
2024/01/30 11:18:42;;;;;;;22.73;17.38;;;12.80;77.00;;;;;;6247245;23;20008;-80
2024/01/30 11:21:08;;;;;;;20.67;16.67;;;12.80;78.40;;;;;;6247486;23;20118;-81
2024/01/30 11:23:35;;;;;;;19.88;16.50;;;12.80;78.80;;;;;;6247112;23;20314;-81
2024/01/30 11:26:01;;;;;;;23.30;18.40;;;12.90;79.40;;;;;;6247375;23;20010;-80
2024/01/30 11:28:34;;;;;;;23.58;18.65;;;13.20;79.80;;;;;;6247117;23;20075;-81
2024/01/30 11:31:09;;;;;;;29.65;23.60;;;13.60;79.60;;;;;;6246786;23;20007;-81
2024/01/30 11:33:35;;;;;;;21.13;18.75;;;13.70;74.80;;;;;;6246978;23;20011;-80
2024/01/30 11:36:02;;;;;;;32.63;23.23;;;13.70;75.50;;;;;;6246983;23;20004;-80
2024/01/30 11:38:28;;;;;;;20.67;18.00;;;13.80;75.40;;;;;;6247084;23;20025;-80
2024/01/30 11:40:58;;;;;;;20.95;17.85;;;13.90;77.50;;;;;;6246799;23;20000;-80
2024/01/30 11:43:24;;;;;;;22.98;18.10;;;14.10;77.70;;;;;;6246774;23;20118;-81
2024/01/30 11:45:50;;;;;;;22.80;18.38;;;14.40;77.90;;;;;;6246697;23;20003;-80
2024/01/30 11:48:23;;;;;;;26.95;20.80;;;14.70;77.50;;;;;;6247493;23;20004;-78
2024/01/30 11:50:50;;;;;;;24.75;19.35;;;15.20;77.30;;;;;;6246809;23;20485;-78
2024/01/30 11:53:16;;;;;;;28.80;20.42;;;15.70;76.40;;;;;;6219593;23;20672;-79
2024/01/30 11:55:42;;;;;;;25.25;19.55;;;16.40;76.10;;;;;;6246914;23;20008;-79
2024/01/30 11:58:08;;;;;;;23.90;19.33;;;17.60;73.80;;;;;;6246492;23;20326;-79
2024/01/30 12:00:36;;;;;;;25.27;20.77;;;19.00;70.50;;;;;;6245939;23;20006;-79
2024/01/30 12:03:02;;;;;;;24.55;18.60;;;19.90;66.20;;;;;;6218804;23;20010;-79
2024/01/30 12:05:29;;;;;;;24.33;20.35;;;21.00;63.70;;;;;;6245948;23;20008;-79
2024/01/30 12:07:55;;;;;;;25.92;20.35;;;21.90;60.00;;;;;;6246739;23;20476;-79
2024/01/30 12:10:30;;;;;;;29.08;21.02;;;22.50;57.20;;;;;;6246397;23;20322;-79
2024/01/30 12:12:57;;;;;;;24.45;21.33;;;23.20;54.30;;;;;;6219258;23;20303;-79
2024/01/30 12:15:22;;;;;;;24.48;21.17;;;23.70;53.00;;;;;;6246254;23;20000;-79
2024/01/30 12:17:48;;;;;;;28.63;22.17;;;24.20;51.30;;;;;;6245695;23;20045;-79
2024/01/30 12:20:17;;;;;;;30.58;22.50;;;24.50;50.20;;;;;;6245858;23;20023;-79
2024/01/30 12:22:44;;;;;;;24.95;21.17;;;24.50;49.30;;;;;;6246156;23;20081;-79
2024/01/30 12:25:20;;;;;;;26.42;22.55;;;24.30;48.60;;;;;;6245810;23;19997;-79
2024/01/30 12:27:50;;;;;;;28.30;21.27;;;24.40;48.70;;;;;;6219057;23;20033;-79
2024/01/30 12:30:16;;;;;;;24.20;21.27;;;24.70;48.40;;;;;;6246015;23;20035;-79
2024/01/30 12:32:46;;;;;;;27.80;21.40;;;25.20;47.20;;;;;;6246156;23;20054;-79